createdAt,value
2023-04-26T00:02:05.448Z,12.85
2023-04-26T00:04:34.429Z,12.02
2023-04-26T00:07:03.649Z,11.43
2023-04-26T00:09:31.823Z,10.98
2023-04-26T00:11:59.606Z,10.61
2023-04-26T00:14:27.244Z,10.31
2023-04-26T00:16:55.037Z,10.67
2023-04-26T00:19:24.336Z,13.33
2023-04-26T00:21:52.068Z,14.92
2023-04-26T00:24:19.843Z,13.95
2023-04-26T00:26:47.513Z,12.74
2023-04-26T00:29:15.362Z,11.93
2023-04-26T00:31:43.054Z,11.33
2023-04-26T00:34:10.896Z,10.88
2023-04-26T00:36:38.656Z,10.52
2023-04-26T00:39:06.834Z,10.77
2023-04-26T00:41:34.510Z,13.33
2023-04-26T00:44:02.258Z,15.03
2023-04-26T00:46:31.251Z,14.12
2023-04-26T00:48:59.013Z,12.92
2023-04-26T00:51:27.324Z,12.08
2023-04-26T00:53:55.259Z,11.47
2023-04-26T00:56:22.920Z,11.03
2023-04-26T00:58:50.859Z,10.66
2023-04-26T01:01:18.882Z,10.87
2023-04-26T01:03:47.105Z,13.43
2023-04-26T01:06:15.004Z,15.07
2023-04-26T01:08:42.762Z,14.13
2023-04-26T01:11:10.421Z,12.92
2023-04-26T01:13:38.086Z,12.08
2023-04-26T01:16:06.464Z,11.49
2023-04-26T01:18:36.306Z,11.03
2023-04-26T01:21:05.397Z,10.65
2023-04-26T01:23:33.135Z,11.07
2023-04-26T01:26:00.901Z,13.45
2023-04-26T01:28:28.558Z,14.95
2023-04-26T01:30:56.941Z,14.06
2023-04-26T01:33:24.811Z,12.71
2023-04-26T01:35:52.609Z,11.69
2023-04-26T01:38:20.949Z,11.08
2023-04-26T01:40:48.615Z,11.26
2023-04-26T01:43:18.627Z,13.58
2023-04-26T01:45:46.494Z,15.00
2023-04-26T01:48:14.259Z,13.97
2023-04-26T01:50:41.915Z,12.76
2023-04-26T01:53:09.599Z,11.90
2023-04-26T01:55:37.344Z,11.28
2023-04-26T01:58:05.026Z,10.84
2023-04-26T02:00:32.769Z,11.09
2023-04-26T02:03:01.328Z,13.54
2023-04-26T02:05:29.177Z,15.17
2023-04-26T02:07:56.983Z,14.28
2023-04-26T02:10:24.650Z,13.02
2023-04-26T02:12:52.308Z,12.12
2023-04-26T02:15:19.988Z,11.48
2023-04-26T02:17:47.665Z,11.00
2023-04-26T02:20:15.678Z,11.70
2023-04-26T02:22:43.590Z,13.96
2023-04-26T02:25:12.063Z,14.17
2023-04-26T02:27:39.701Z,12.98
2023-04-26T02:30:07.687Z,12.06
2023-04-26T02:32:35.671Z,11.40
2023-04-26T02:35:03.418Z,10.91
2023-04-26T02:37:31.074Z,10.52
2023-04-26T02:39:58.743Z,10.81
2023-04-26T02:42:26.507Z,13.30
2023-04-26T02:44:54.211Z,14.57
2023-04-26T02:47:21.849Z,13.71
2023-04-26T02:49:49.793Z,12.56
2023-04-26T02:52:17.459Z,11.70
2023-04-26T02:54:45.114Z,11.10
2023-04-26T02:57:13.189Z,10.65
2023-04-26T02:59:41.156Z,10.30
2023-04-26T03:02:08.953Z,10.18
2023-04-26T03:04:36.787Z,12.09
2023-04-26T03:07:04.447Z,14.03
2023-04-26T03:09:32.221Z,13.39
2023-04-26T03:11:59.892Z,12.20
2023-04-26T03:14:27.546Z,11.34
2023-04-26T03:16:55.356Z,10.70
2023-04-26T03:19:23.166Z,10.24
2023-04-26T03:21:50.940Z,9.90
2023-04-26T03:24:18.600Z,11.16
2023-04-26T03:26:46.563Z,13.16
2023-04-26T03:29:14.332Z,12.68
2023-04-26T03:31:42.028Z,11.63
2023-04-26T03:34:09.772Z,10.84
2023-04-26T03:36:37.642Z,10.28
2023-04-26T03:39:06.545Z,9.86
2023-04-26T03:41:37.148Z,9.53
2023-04-26T03:44:04.806Z,9.26
2023-04-26T03:46:32.543Z,10.23
2023-04-26T03:49:00.553Z,12.77
2023-04-26T03:51:28.505Z,12.68
2023-04-26T03:53:56.378Z,11.60
2023-04-26T03:56:24.152Z,10.75
2023-04-26T03:58:52.010Z,10.15
2023-04-26T04:01:20.802Z,9.71
2023-04-26T04:03:48.823Z,9.33
2023-04-26T04:06:17.047Z,9.03
2023-04-26T04:08:44.697Z,8.74
2023-04-26T04:11:12.358Z,8.50
2023-04-26T04:13:40.224Z,8.31
2023-04-26T04:16:10.438Z,8.16
2023-04-26T04:18:38.313Z,8.18
2023-04-26T04:21:05.978Z,10.36
2023-04-26T04:23:33.734Z,12.59
2023-04-26T04:26:01.412Z,12.00
2023-04-26T04:28:30.085Z,10.86
2023-04-26T04:30:58.508Z,10.07
2023-04-26T04:33:28.689Z,9.51
2023-04-26T04:35:56.459Z,9.11
2023-04-26T04:38:24.724Z,8.80
2023-04-26T04:40:52.486Z,8.53
2023-04-26T04:43:20.358Z,8.30
2023-04-26T04:45:49.615Z,8.11
2023-04-26T04:48:18.727Z,8.05
2023-04-26T04:50:47.130Z,9.97
2023-04-26T04:53:14.799Z,12.29
2023-04-26T04:55:42.470Z,11.73
2023-04-26T04:58:10.114Z,10.68
2023-04-26T05:00:38.242Z,9.92
2023-04-26T05:03:06.132Z,9.38
2023-04-26T05:05:34.337Z,8.99
2023-04-26T05:08:01.992Z,8.68
2023-04-26T05:10:29.661Z,8.43
2023-04-26T05:12:57.420Z,8.23
2023-04-26T05:15:25.195Z,8.07
2023-04-26T05:17:53.011Z,8.51
2023-04-26T05:20:20.845Z,11.19
2023-04-26T05:22:48.578Z,12.86
2023-04-26T05:25:17.695Z,12.10
2023-04-26T05:27:48.518Z,10.99
2023-04-26T05:30:16.665Z,10.21
2023-04-26T05:32:44.502Z,9.68
2023-04-26T05:35:12.320Z,9.27
2023-04-26T05:37:40.297Z,8.93
2023-04-26T05:40:08.285Z,8.64
2023-04-26T05:42:36.230Z,8.40
2023-04-26T05:45:03.884Z,8.40
2023-04-26T05:47:31.855Z,10.56
2023-04-26T05:49:59.619Z,12.63
2023-04-26T05:52:27.279Z,11.96
2023-04-26T05:54:54.950Z,10.86
2023-04-26T05:57:22.837Z,10.10
2023-04-26T05:59:50.875Z,9.56
2023-04-26T06:02:18.680Z,9.22
2023-04-26T06:04:47.110Z,8.92
2023-04-26T06:07:15.004Z,8.67
2023-04-26T06:09:42.956Z,8.45
2023-04-26T06:12:10.758Z,8.42
2023-04-26T06:14:38.481Z,10.17
2023-04-26T06:17:06.320Z,10.81
2023-04-26T06:19:34.022Z,10.12
2023-04-26T06:22:01.674Z,9.47
2023-04-26T06:24:29.336Z,9.05
2023-04-26T06:26:56.996Z,8.76
2023-04-26T06:29:24.660Z,8.57
2023-04-26T06:31:52.423Z,8.42
2023-04-26T06:34:20.195Z,8.32
2023-04-26T06:36:48.367Z,8.92
2023-04-26T06:39:17.361Z,11.57
2023-04-26T06:41:45.031Z,12.05
2023-04-26T06:44:12.799Z,11.17
2023-04-26T06:46:40.626Z,10.33
2023-04-26T06:49:08.416Z,9.72
2023-04-26T06:51:37.002Z,9.27
2023-04-26T06:54:05.405Z,8.93
2023-04-26T06:56:33.247Z,8.68
2023-04-26T06:59:01.208Z,8.50
2023-04-26T07:01:29.558Z,8.37
2023-04-26T07:03:57.925Z,8.28
2023-04-26T07:06:26.143Z,8.23
2023-04-26T07:08:54.357Z,8.23
2023-04-26T07:11:24.039Z,9.13
2023-04-26T07:13:53.851Z,10.39
2023-04-26T07:16:21.760Z,10.18
2023-04-26T07:18:49.669Z,9.73
2023-04-26T07:21:17.348Z,9.38
2023-04-26T07:23:45.001Z,9.10
2023-04-26T07:26:12.772Z,8.89
2023-04-26T07:28:40.536Z,8.73
2023-04-26T07:31:09.557Z,8.62
2023-04-26T07:33:39.117Z,8.54
2023-04-26T07:36:06.885Z,8.52
2023-04-26T07:38:34.560Z,8.53
2023-04-26T07:41:02.218Z,9.04
2023-04-26T07:43:29.907Z,10.61
2023-04-26T07:45:57.646Z,10.46
2023-04-26T07:48:25.299Z,9.98
2023-04-26T07:50:53.066Z,9.65
2023-04-26T07:53:21.028Z,9.45
2023-04-26T07:55:48.698Z,9.34
2023-04-26T07:58:16.461Z,9.27
2023-04-26T08:00:44.119Z,9.24
2023-04-26T08:03:12.743Z,9.22
2023-04-26T08:05:41.506Z,9.15
2023-04-26T08:08:09.474Z,9.09
2023-04-26T08:10:38.455Z,9.02
2023-04-26T08:13:06.321Z,8.98
2023-04-26T08:15:34.081Z,8.94
2023-04-26T08:18:02.204Z,8.88
2023-04-26T08:20:30.129Z,8.83
2023-04-26T08:22:57.886Z,8.84
2023-04-26T08:25:25.556Z,8.87
2023-04-26T08:27:53.310Z,8.94
2023-04-26T08:30:21.487Z,9.04
2023-04-26T08:32:49.274Z,9.10
2023-04-26T08:35:17.013Z,9.16
2023-04-26T08:37:44.672Z,9.21
2023-04-26T08:40:12.335Z,9.23
2023-04-26T08:42:40.117Z,9.26
2023-04-26T08:45:07.758Z,9.33
2023-04-26T08:47:35.734Z,9.40
2023-04-26T08:50:04.854Z,9.45
2023-04-26T08:52:32.595Z,9.47
2023-04-26T08:55:00.459Z,9.52
2023-04-26T08:57:28.128Z,9.56
2023-04-26T08:59:56.405Z,9.63
2023-04-26T09:02:24.291Z,9.67
2023-04-26T09:04:52.418Z,9.75
2023-04-26T09:07:20.304Z,9.81
2023-04-26T09:09:47.966Z,9.87
2023-04-26T09:12:15.623Z,9.87
2023-04-26T09:14:43.297Z,9.84
2023-04-26T09:17:11.052Z,9.77
2023-04-26T09:19:38.829Z,9.67
2023-04-26T09:22:06.784Z,9.58
2023-04-26T09:24:34.444Z,9.51
2023-04-26T09:27:03.334Z,9.48
2023-04-26T09:29:31.610Z,9.52
2023-04-26T09:31:59.310Z,9.62
2023-04-26T09:34:27.368Z,9.61
2023-04-26T09:36:57.289Z,9.56
2023-04-26T09:39:25.024Z,9.54
2023-04-26T09:41:52.686Z,9.55
2023-04-26T09:44:20.355Z,9.58
2023-04-26T09:46:48.027Z,9.63
2023-04-26T09:49:15.880Z,9.70
2023-04-26T09:51:43.537Z,9.78
2023-04-26T09:54:11.196Z,9.83
2023-04-26T09:56:38.859Z,9.86
2023-04-26T09:59:09.190Z,9.96
2023-04-26T10:01:36.972Z,10.11
2023-04-26T10:04:05.072Z,10.29
2023-04-26T10:06:33.206Z,10.40
2023-04-26T10:09:01.481Z,10.39
2023-04-26T10:11:29.133Z,10.34
2023-04-26T10:13:56.791Z,10.26
2023-04-26T10:16:24.527Z,10.22
2023-04-26T10:18:52.675Z,10.28
2023-04-26T10:21:20.803Z,10.41
2023-04-26T10:23:48.466Z,10.48
2023-04-26T10:26:16.124Z,10.49
2023-04-26T10:28:43.785Z,10.43
2023-04-26T10:31:11.660Z,10.37
2023-04-26T10:33:39.327Z,10.31
2023-04-26T10:36:07.285Z,10.26
2023-04-26T10:38:35.047Z,10.20
2023-04-26T10:41:03.020Z,10.15
2023-04-26T10:43:31.091Z,10.12
2023-04-26T10:45:58.989Z,10.09
2023-04-26T10:48:26.725Z,10.08
2023-04-26T10:50:54.343Z,10.08
2023-04-26T10:53:22.567Z,10.07
2023-04-26T10:55:50.215Z,10.06
2023-04-26T10:58:17.882Z,10.04
2023-04-26T11:00:45.541Z,10.03
2023-04-26T11:03:13.396Z,10.01
2023-04-26T11:05:42.835Z,10.00
2023-04-26T11:08:10.591Z,10.00
2023-04-26T11:10:39.075Z,10.09
2023-04-26T11:13:07.126Z,10.20
2023-04-26T11:15:34.811Z,10.25
2023-04-26T11:18:02.829Z,10.28
2023-04-26T11:20:31.658Z,10.32
2023-04-26T11:22:59.622Z,10.34
2023-04-26T11:25:28.407Z,10.34
2023-04-26T11:27:56.478Z,10.34
2023-04-26T11:30:24.105Z,10.33
2023-04-26T11:32:51.833Z,10.33
2023-04-26T11:35:19.567Z,10.35
2023-04-26T11:37:48.660Z,10.50
2023-04-26T11:40:16.320Z,10.70
2023-04-26T11:42:43.984Z,10.82
2023-04-26T11:45:11.749Z,10.92
2023-04-26T11:47:39.409Z,11.05
2023-04-26T11:50:07.169Z,11.22
2023-04-26T11:52:34.836Z,11.39
2023-04-26T11:55:04.446Z,11.50
2023-04-26T11:57:33.131Z,11.50
2023-04-26T12:00:00.791Z,11.40
2023-04-26T12:02:28.605Z,11.29
2023-04-26T12:04:56.673Z,11.16
2023-04-26T12:07:24.489Z,11.03
2023-04-26T12:09:52.152Z,10.91
2023-04-26T12:12:19.814Z,10.74
2023-04-26T12:14:47.589Z,10.62
2023-04-26T12:17:15.299Z,10.52
2023-04-26T12:19:43.107Z,10.42
2023-04-26T12:22:11.392Z,10.34
2023-04-26T12:24:39.349Z,10.30
2023-04-26T12:27:07.261Z,10.26
2023-04-26T12:29:35.206Z,10.29
2023-04-26T12:32:03.174Z,10.43
2023-04-26T12:34:31.322Z,10.65
2023-04-26T12:36:59.197Z,10.83
2023-04-26T12:39:26.888Z,10.88
2023-04-26T12:41:55.355Z,10.88
2023-04-26T12:44:23.117Z,10.87
2023-04-26T12:46:51.489Z,10.82
2023-04-26T12:49:19.147Z,10.74
2023-04-26T12:51:46.806Z,10.66
2023-04-26T12:54:14.470Z,10.60
2023-04-26T12:56:44.711Z,10.55
2023-04-26T12:59:12.471Z,10.49
2023-04-26T13:01:40.234Z,10.40
2023-04-26T13:04:08.175Z,10.34
2023-04-26T13:06:36.366Z,10.31
2023-04-26T13:09:04.122Z,10.31
2023-04-26T13:11:32.180Z,10.34
2023-04-26T13:13:59.857Z,10.39
2023-04-26T13:16:27.603Z,10.51
2023-04-26T13:18:56.350Z,10.63
2023-04-26T13:21:24.313Z,10.75
2023-04-26T13:23:52.144Z,10.89
2023-04-26T13:26:20.020Z,10.99
2023-04-26T13:28:48.500Z,11.03
2023-04-26T13:31:17.581Z,11.05
2023-04-26T13:33:47.530Z,11.01
2023-04-26T13:36:16.083Z,10.95
2023-04-26T13:38:43.949Z,10.92
2023-04-26T13:41:11.745Z,10.89
2023-04-26T13:43:39.481Z,10.85
2023-04-26T13:46:07.162Z,10.82
2023-04-26T13:48:34.904Z,10.80
2023-04-26T13:51:04.027Z,10.80
2023-04-26T13:53:32.784Z,10.80
2023-04-26T13:56:00.550Z,10.84
2023-04-26T13:58:28.184Z,10.87
2023-04-26T14:00:56.260Z,10.82
2023-04-26T14:03:24.187Z,10.72
2023-04-26T14:05:52.028Z,10.72
2023-04-26T14:08:22.211Z,10.77
2023-04-26T14:10:49.900Z,10.79
2023-04-26T14:13:17.665Z,10.86
2023-04-26T14:15:45.485Z,10.93
2023-04-26T14:18:13.433Z,10.97
2023-04-26T14:20:41.365Z,11.03
2023-04-26T14:23:09.028Z,11.10
2023-04-26T14:25:36.995Z,11.15
2023-04-26T14:28:04.656Z,11.19
2023-04-26T14:30:32.420Z,11.25
2023-04-26T14:33:00.212Z,11.32
2023-04-26T14:35:28.053Z,11.33
2023-04-26T14:37:55.729Z,11.29
2023-04-26T14:40:23.477Z,11.23
2023-04-26T14:42:51.346Z,11.17
2023-04-26T14:45:19.214Z,11.12
2023-04-26T14:47:46.987Z,11.05
2023-04-26T14:50:14.838Z,10.96
2023-04-26T14:52:42.509Z,10.88
2023-04-26T14:55:10.161Z,10.82
2023-04-26T14:57:38.034Z,10.80
2023-04-26T15:00:09.292Z,10.82
2023-04-26T15:02:37.119Z,10.82
2023-04-26T15:05:05.350Z,10.74
2023-04-26T15:07:33.281Z,10.65
2023-04-26T15:10:01.774Z,10.60
2023-04-26T15:12:29.747Z,10.53
2023-04-26T15:14:57.713Z,10.53
2023-04-26T15:17:25.576Z,10.59
2023-04-26T15:19:53.232Z,10.66
2023-04-26T15:22:20.996Z,10.74
2023-04-26T15:24:51.136Z,10.81
2023-04-26T15:27:18.984Z,10.90
2023-04-26T15:29:46.861Z,10.97
2023-04-26T15:32:14.509Z,11.04
2023-04-26T15:34:45.344Z,11.07
2023-04-26T15:37:13.240Z,11.05
2023-04-26T15:39:41.021Z,11.05
2023-04-26T15:42:08.953Z,11.02
2023-04-26T15:44:37.116Z,11.06
2023-04-26T15:47:04.879Z,11.11
2023-04-26T15:49:32.548Z,11.14
2023-04-26T15:52:00.398Z,11.09
2023-04-26T15:54:28.276Z,10.99
2023-04-26T15:56:55.938Z,10.92
2023-04-26T15:59:23.705Z,10.98
2023-04-26T16:01:51.411Z,11.10
2023-04-26T16:04:19.420Z,11.22
2023-04-26T16:06:47.306Z,11.41
2023-04-26T16:09:25.127Z,11.60
2023-04-26T16:11:53.791Z,11.65
2023-04-26T16:14:21.451Z,11.60
2023-04-26T16:16:49.116Z,11.50
2023-04-26T16:19:17.590Z,11.34
2023-04-26T16:21:45.768Z,11.18
2023-04-26T16:24:13.434Z,11.03
2023-04-26T16:26:41.706Z,10.88
2023-04-26T16:29:09.369Z,10.73
2023-04-26T16:31:37.040Z,10.64
2023-04-26T16:34:04.794Z,10.55
2023-04-26T16:36:33.172Z,10.46
2023-04-26T16:39:00.937Z,10.44
2023-04-26T16:41:28.701Z,10.42
2023-04-26T16:43:56.474Z,10.40
2023-04-26T16:46:24.261Z,10.39
2023-04-26T16:48:51.996Z,10.38
2023-04-26T16:51:19.760Z,10.40
2023-04-26T16:53:47.426Z,10.45
2023-04-26T16:56:15.282Z,10.50
2023-04-26T16:58:43.256Z,10.45
2023-04-26T17:01:11.049Z,10.35
2023-04-26T17:03:38.877Z,10.25
2023-04-26T17:06:08.083Z,10.15
2023-04-26T17:08:36.156Z,10.02
2023-04-26T17:11:03.814Z,9.93
2023-04-26T17:13:33.534Z,9.84
2023-04-26T17:16:01.992Z,9.75
2023-04-26T17:18:29.664Z,9.70
2023-04-26T17:20:57.940Z,9.65
2023-04-26T17:23:25.918Z,9.60
2023-04-26T17:25:55.305Z,9.55
2023-04-26T17:28:23.291Z,9.49
2023-04-26T17:30:51.064Z,9.44
2023-04-26T17:33:19.001Z,9.38
2023-04-26T17:35:47.502Z,9.31
2023-04-26T17:38:15.266Z,9.27
2023-04-26T17:40:43.039Z,9.23
2023-04-26T17:43:11.509Z,9.20
2023-04-26T17:45:39.298Z,9.17
2023-04-26T17:48:11.297Z,9.15
2023-04-26T17:50:39.100Z,9.12
2023-04-26T17:53:07.478Z,9.07
2023-04-26T17:55:35.236Z,9.01
2023-04-26T17:58:02.903Z,8.93
2023-04-26T18:00:30.668Z,8.87
2023-04-26T18:02:59.150Z,8.81
2023-04-26T18:05:27.125Z,8.76
2023-04-26T18:07:54.880Z,8.71
2023-04-26T18:10:22.539Z,8.66
2023-04-26T18:12:50.202Z,8.62
2023-04-26T18:15:18.070Z,8.57
2023-04-26T18:17:45.990Z,8.54
2023-04-26T18:20:13.801Z,8.50
2023-04-26T18:22:41.871Z,8.47
2023-04-26T18:25:09.533Z,8.45
2023-04-26T18:27:37.399Z,8.43
2023-04-26T18:30:05.166Z,8.43
2023-04-26T18:32:32.876Z,8.41
2023-04-26T18:35:01.108Z,8.40
2023-04-26T18:37:28.762Z,8.39
2023-04-26T18:39:56.431Z,8.39
2023-04-26T18:42:24.192Z,8.39
2023-04-26T18:44:51.855Z,8.40
2023-04-26T18:47:19.620Z,8.41
2023-04-26T18:49:47.580Z,8.42
2023-04-26T18:52:15.245Z,8.42
2023-04-26T18:54:43.011Z,8.42
2023-04-26T18:57:10.872Z,8.41
2023-04-26T18:59:38.959Z,8.41
2023-04-26T19:02:06.813Z,8.40
2023-04-26T19:04:34.992Z,8.41
2023-04-26T19:07:02.855Z,8.41
2023-04-26T19:09:37.009Z,8.41
2023-04-26T19:12:11.092Z,8.41
2023-04-26T19:14:38.848Z,8.41
2023-04-26T19:17:06.713Z,8.40
2023-04-26T19:19:34.375Z,8.40
2023-04-26T19:22:03.478Z,8.40
2023-04-26T19:24:31.152Z,8.40
2023-04-26T19:26:58.896Z,8.39
2023-04-26T19:29:26.970Z,8.37
2023-04-26T19:31:54.672Z,8.36
2023-04-26T19:34:22.608Z,8.35
2023-04-26T19:36:50.264Z,8.36
2023-04-26T19:39:18.024Z,8.36
2023-04-26T19:41:46.017Z,8.35
2023-04-26T19:44:13.758Z,8.34
2023-04-26T19:46:41.745Z,8.34
2023-04-26T19:49:09.488Z,8.33
2023-04-26T19:51:37.153Z,8.33
2023-04-26T19:54:04.823Z,8.31
2023-04-26T19:56:32.496Z,8.29
2023-04-26T19:59:00.241Z,8.26
2023-04-26T20:01:28.094Z,8.22
2023-04-26T20:03:56.233Z,8.18
2023-04-26T20:06:24.251Z,8.15
2023-04-26T20:08:51.913Z,8.13
2023-04-26T20:11:19.692Z,8.11
2023-04-26T20:13:47.445Z,8.09
2023-04-26T20:16:15.118Z,8.08
2023-04-26T20:18:43.592Z,8.06
2023-04-26T20:21:11.354Z,8.04
2023-04-26T20:23:39.110Z,8.03
2023-04-26T20:26:06.772Z,8.03
2023-04-26T20:28:34.532Z,8.02
2023-04-26T20:31:02.195Z,8.01
2023-04-26T20:33:29.857Z,7.98
2023-04-26T20:35:57.519Z,7.95
2023-04-26T20:38:25.389Z,7.94
2023-04-26T20:40:53.455Z,7.91
2023-04-26T20:43:21.440Z,7.90
2023-04-26T20:45:49.286Z,7.89
2023-04-26T20:48:17.066Z,7.89
2023-04-26T20:50:44.733Z,7.89
2023-04-26T20:53:12.387Z,7.89
2023-04-26T20:55:40.043Z,7.90
2023-04-26T20:58:07.809Z,7.90
2023-04-26T21:00:36.083Z,7.89
2023-04-26T21:03:03.859Z,7.88
2023-04-26T21:05:31.823Z,7.87
2023-04-26T21:07:59.484Z,7.84
2023-04-26T21:10:27.139Z,7.82
2023-04-26T21:12:54.803Z,7.82
2023-04-26T21:15:22.464Z,7.82
2023-04-26T21:17:50.270Z,7.81
2023-04-26T21:20:17.992Z,7.82
2023-04-26T21:22:45.665Z,7.80
2023-04-26T21:25:17.152Z,7.78
2023-04-26T21:27:44.869Z,7.75
2023-04-26T21:30:12.529Z,7.71
2023-04-26T21:32:40.483Z,7.69
2023-04-26T21:35:08.263Z,7.66
2023-04-26T21:37:35.924Z,7.65
2023-04-26T21:40:06.864Z,7.63
2023-04-26T21:42:34.526Z,7.61
2023-04-26T21:45:02.399Z,7.56
2023-04-26T21:47:30.163Z,7.51
2023-04-26T21:49:57.920Z,7.48
2023-04-26T21:52:26.196Z,7.44
2023-04-26T21:54:54.163Z,7.42
2023-04-26T21:57:24.356Z,7.40
2023-04-26T21:59:52.048Z,7.39
2023-04-26T22:02:20.155Z,7.40
2023-04-26T22:04:48.089Z,7.40
2023-04-26T22:07:15.750Z,7.41
2023-04-26T22:09:43.411Z,7.41
2023-04-26T22:12:11.204Z,7.40
2023-04-26T22:14:38.837Z,7.37
2023-04-26T22:17:06.711Z,7.34
2023-04-26T22:19:34.364Z,7.31
2023-04-26T22:22:02.133Z,7.28
2023-04-26T22:24:29.895Z,7.24
2023-04-26T22:26:57.556Z,7.21
2023-04-26T22:29:25.216Z,7.18
2023-04-26T22:31:53.040Z,7.17
2023-04-26T22:34:20.850Z,7.17
2023-04-26T22:36:48.613Z,7.15
2023-04-26T22:39:16.290Z,7.15
2023-04-26T22:41:44.037Z,7.12
2023-04-26T22:44:11.904Z,7.11
2023-04-26T22:46:39.566Z,7.10
2023-04-26T22:49:07.223Z,7.06
2023-04-26T22:51:35.195Z,7.02
2023-04-26T22:54:04.094Z,7.02
2023-04-26T22:56:31.756Z,6.99
2023-04-26T22:58:59.411Z,6.97
2023-04-26T23:01:27.111Z,6.96
2023-04-26T23:03:54.977Z,6.94
2023-04-26T23:06:22.804Z,6.93
2023-04-26T23:08:50.653Z,6.93
2023-04-26T23:11:19.257Z,6.92
2023-04-26T23:13:47.528Z,6.89
2023-04-26T23:16:15.625Z,6.88
2023-04-26T23:18:44.082Z,6.88
2023-04-26T23:21:11.854Z,6.88
2023-04-26T23:23:39.628Z,6.87
2023-04-26T23:26:08.502Z,6.86
2023-04-26T23:28:36.671Z,6.86
2023-04-26T23:31:04.623Z,6.85
2023-04-26T23:33:32.409Z,6.85
2023-04-26T23:36:00.193Z,6.86
2023-04-26T23:38:28.036Z,6.86
2023-04-26T23:40:55.709Z,6.85
2023-04-26T23:43:23.464Z,6.85
2023-04-26T23:45:51.394Z,6.84
2023-04-26T23:48:19.093Z,6.83
2023-04-26T23:50:46.706Z,6.83
2023-04-26T23:53:14.428Z,6.84
2023-04-26T23:55:42.192Z,6.83
2023-04-26T23:58:09.847Z,6.82
